Weather at Dubai International Airport

Public forecast

Using degrees Celsius for public forecast. Weather courtesy of forecast.io.

Current aviation weather report (METAR) for Dubai International Airport

Retrieved 2021/06/23 11:00 UTC (27 minutes ago):

OMDB 231100Z 33014KT 8000 NSC 41/22 Q1000 NOSIG

Aviation forecast (TAF) for Dubai International Airport

Retrieved 2021/06/23 06:00 UTC (5 hours ago):

TAF OMDB 230500Z 2306/2412 18007KT 8000 NSC BECMG 2308/2310 33013KT PROB30 TEMPO 2310/2315 11020G35KT 1500 BLDU FEW040TCU BECMG 2315/2317 08005KT BECMG 2403/2405 18010KT BECMG 2408/2410 33014KT